Etusivu
METAR-TAF:

METAR-TAF

Lentoasemat :

Independence Municipal Airport

Independence, Iowa, Yhdysvallat

Leveyspiiri: 42-27N, Pituuspiiri: 091-56W, korkeus merenpinnasta: 298 m

Tämänhetkinen sää

Tämä raportti tehtiin 31 minuuttia sitten, kello 20.15 UTC
Tuuli 13 kn pohjoisen/luoteesta
Lämpötila -1°C
Kosteus 69%
Ilmanpaine 1022 hPa
Näkyvyys: 16.1 km
Hajanaisia pilviä 2800 ft:n korkeudessa
Hajanaisia pilviä 3200 ft:n korkeudessa
Hajonneita pilviä 3800 ft:n korkeudessa

METAR: KIIB 262015Z AUTO 34013KT 10SM SCT028 SCT032 BKN038 M01/M06 A3019 RMK AO2 T10141058

Aika: 14:46 (20:46 UTC)


TAF: puuttuu

Säähavainnot ja -ennusteet yli 4000 lentoasemalta (METAR- ja TAF-raportit).

Käytössä olevat sääasemat on merkitty karttaan keltaisilla ja punaisilla pisteillä.

Aseta hiiri pisteen päälle nähdäksesi sääaseman nimen.

Klikkaa sitten nähdäksesi säähavainnot ja -ennusteet.

Kartan vaihtaminen: klikkaa mustalla rastilla varustettuja vihreitä pisteitä, niin voit zoomata sisään; viivalla varustettua vihreää pistettä, niin voit zoomata ulos tai vihreitä nuolia, niin pääset viereisille kartoille.


METAR-TAF: